sensor_id;sensor_type;location;lat;lon;timestamp;P1;durP1;ratioP1;P2;durP2;ratioP2
11665;SDS011;5889;51.350;6.708;2024-01-30T00:00:03;10.87;;;8.33;;
11665;SDS011;5889;51.350;6.708;2024-01-30T00:02:31;15.00;;;8.37;;
11665;SDS011;5889;51.350;6.708;2024-01-30T00:05:00;12.87;;;8.23;;
11665;SDS011;5889;51.350;6.708;2024-01-30T00:07:28;11.83;;;8.97;;
11665;SDS011;5889;51.350;6.708;2024-01-30T00:09:55;11.57;;;8.40;;
11665;SDS011;5889;51.350;6.708;2024-01-30T00:12:22;11.30;;;8.07;;
11665;SDS011;5889;51.350;6.708;2024-01-30T00:14:49;10.27;;;7.33;;
11665;SDS011;5889;51.350;6.708;2024-01-30T00:17:16;11.37;;;8.50;;
11665;SDS011;5889;51.350;6.708;2024-01-30T00:19:44;12.20;;;8.27;;
11665;SDS011;5889;51.350;6.708;2024-01-30T00:22:12;15.60;;;7.60;;
11665;SDS011;5889;51.350;6.708;2024-01-30T00:24:39;15.33;;;9.50;;
11665;SDS011;5889;51.350;6.708;2024-01-30T00:27:06;14.90;;;8.63;;
11665;SDS011;5889;51.350;6.708;2024-01-30T00:29:34;13.97;;;9.33;;
11665;SDS011;5889;51.350;6.708;2024-01-30T00:32:00;13.83;;;8.80;;
11665;SDS011;5889;51.350;6.708;2024-01-30T00:34:27;12.10;;;8.37;;
11665;SDS011;5889;51.350;6.708;2024-01-30T00:36:54;12.50;;;8.63;;
11665;SDS011;5889;51.350;6.708;2024-01-30T00:39:22;14.63;;;8.87;;
11665;SDS011;5889;51.350;6.708;2024-01-30T00:41:49;12.07;;;8.13;;
11665;SDS011;5889;51.350;6.708;2024-01-30T00:44:16;15.87;;;9.37;;
11665;SDS011;5889;51.350;6.708;2024-01-30T00:46:43;14.03;;;8.63;;
11665;SDS011;5889;51.350;6.708;2024-01-30T00:49:10;13.30;;;8.53;;
11665;SDS011;5889;51.350;6.708;2024-01-30T00:51:37;16.33;;;9.77;;
11665;SDS011;5889;51.350;6.708;2024-01-30T00:54:04;15.37;;;9.97;;
11665;SDS011;5889;51.350;6.708;2024-01-30T00:56:33;15.27;;;9.07;;
11665;SDS011;5889;51.350;6.708;2024-01-30T00:59:00;13.47;;;9.03;;
11665;SDS011;5889;51.350;6.708;2024-01-30T01:01:27;14.40;;;9.27;;
11665;SDS011;5889;51.350;6.708;2024-01-30T01:03:53;13.27;;;8.80;;
11665;SDS011;5889;51.350;6.708;2024-01-30T01:06:20;15.07;;;9.13;;
11665;SDS011;5889;51.350;6.708;2024-01-30T01:08:47;13.70;;;9.17;;
11665;SDS011;5889;51.350;6.708;2024-01-30T01:11:14;15.27;;;8.73;;
11665;SDS011;5889;51.350;6.708;2024-01-30T01:13:42;16.23;;;9.60;;
11665;SDS011;5889;51.350;6.708;2024-01-30T01:16:09;16.70;;;10.43;;
11665;SDS011;5889;51.350;6.708;2024-01-30T01:18:36;14.70;;;9.43;;
11665;SDS011;5889;51.350;6.708;2024-01-30T01:21:03;14.30;;;9.57;;
11665;SDS011;5889;51.350;6.708;2024-01-30T01:23:31;13.87;;;9.27;;
11665;SDS011;5889;51.350;6.708;2024-01-30T01:25:57;13.67;;;9.90;;
11665;SDS011;5889;51.350;6.708;2024-01-30T01:28:26;14.50;;;9.43;;
11665;SDS011;5889;51.350;6.708;2024-01-30T01:30:54;14.87;;;9.67;;
11665;SDS011;5889;51.350;6.708;2024-01-30T01:33:24;13.93;;;9.10;;
11665;SDS011;5889;51.350;6.708;2024-01-30T01:35:51;15.63;;;9.50;;
11665;SDS011;5889;51.350;6.708;2024-01-30T01:38:18;15.80;;;9.57;;
11665;SDS011;5889;51.350;6.708;2024-01-30T01:40:45;12.37;;;9.23;;
11665;SDS011;5889;51.350;6.708;2024-01-30T01:43:12;14.10;;;9.43;;
11665;SDS011;5889;51.350;6.708;2024-01-30T01:45:39;15.30;;;8.97;;
11665;SDS011;5889;51.350;6.708;2024-01-30T01:48:07;14.83;;;9.43;;
11665;SDS011;5889;51.350;6.708;2024-01-30T01:50:35;15.33;;;9.90;;
11665;SDS011;5889;51.350;6.708;2024-01-30T01:53:02;13.43;;;9.57;;
11665;SDS011;5889;51.350;6.708;2024-01-30T01:55:31;16.17;;;9.50;;
11665;SDS011;5889;51.350;6.708;2024-01-30T01:57:58;14.40;;;9.57;;
11665;SDS011;5889;51.350;6.708;2024-01-30T02:00:25;12.67;;;7.50;;
11665;SDS011;5889;51.350;6.708;2024-01-30T02:02:53;15.40;;;9.30;;
11665;SDS011;5889;51.350;6.708;2024-01-30T02:05:22;17.90;;;10.07;;
11665;SDS011;5889;51.350;6.708;2024-01-30T02:07:50;14.53;;;9.63;;
11665;SDS011;5889;51.350;6.708;2024-01-30T02:10:17;13.87;;;9.57;;
11665;SDS011;5889;51.350;6.708;2024-01-30T02:12:44;15.80;;;10.07;;
11665;SDS011;5889;51.350;6.708;2024-01-30T02:15:13;17.20;;;9.67;;
11665;SDS011;5889;51.350;6.708;2024-01-30T02:17:40;18.77;;;10.17;;
11665;SDS011;5889;51.350;6.708;2024-01-30T02:20:07;17.47;;;10.30;;
11665;SDS011;5889;51.350;6.708;2024-01-30T02:22:36;18.07;;;9.87;;
11665;SDS011;5889;51.350;6.708;2024-01-30T02:25:04;12.47;;;8.77;;
11665;SDS011;5889;51.350;6.708;2024-01-30T02:27:31;17.53;;;10.40;;
11665;SDS011;5889;51.350;6.708;2024-01-30T02:29:58;14.10;;;9.70;;
11665;SDS011;5889;51.350;6.708;2024-01-30T02:32:25;18.30;;;9.90;;
11665;SDS011;5889;51.350;6.708;2024-01-30T02:34:52;12.47;;;9.40;;
11665;SDS011;5889;51.350;6.708;2024-01-30T02:37:19;17.53;;;9.90;;
11665;SDS011;5889;51.350;6.708;2024-01-30T02:39:47;12.57;;;9.20;;
11665;SDS011;5889;51.350;6.708;2024-01-30T02:42:14;13.23;;;8.80;;
11665;SDS011;5889;51.350;6.708;2024-01-30T02:44:41;13.87;;;9.07;;
11665;SDS011;5889;51.350;6.708;2024-01-30T02:47:08;15.33;;;8.20;;
11665;SDS011;5889;51.350;6.708;2024-01-30T02:49:35;14.27;;;9.53;;
11665;SDS011;5889;51.350;6.708;2024-01-30T02:52:02;16.30;;;9.10;;
11665;SDS011;5889;51.350;6.708;2024-01-30T02:54:29;15.63;;;9.23;;
11665;SDS011;5889;51.350;6.708;2024-01-30T02:56:58;14.17;;;10.30;;
11665;SDS011;5889;51.350;6.708;2024-01-30T02:59:24;15.33;;;9.30;;
11665;SDS011;5889;51.350;6.708;2024-01-30T03:01:51;15.93;;;10.20;;
11665;SDS011;5889;51.350;6.708;2024-01-30T03:04:18;17.53;;;9.07;;
11665;SDS011;5889;51.350;6.708;2024-01-30T03:06:45;16.43;;;9.40;;
11665;SDS011;5889;51.350;6.708;2024-01-30T03:09:13;13.73;;;10.23;;
11665;SDS011;5889;51.350;6.708;2024-01-30T03:11:39;15.20;;;9.53;;
11665;SDS011;5889;51.350;6.708;2024-01-30T03:14:08;12.80;;;8.77;;
11665;SDS011;5889;51.350;6.708;2024-01-30T03:16:36;14.60;;;8.73;;
11665;SDS011;5889;51.350;6.708;2024-01-30T03:19:03;17.30;;;10.00;;
11665;SDS011;5889;51.350;6.708;2024-01-30T03:21:31;12.97;;;8.63;;
11665;SDS011;5889;51.350;6.708;2024-01-30T03:23:58;13.70;;;8.73;;
11665;SDS011;5889;51.350;6.708;2024-01-30T03:26:25;14.00;;;9.00;;
11665;SDS011;5889;51.350;6.708;2024-01-30T03:28:52;15.27;;;9.10;;
11665;SDS011;5889;51.350;6.708;2024-01-30T03:31:20;12.67;;;9.03;;
11665;SDS011;5889;51.350;6.708;2024-01-30T03:33:47;16.73;;;9.30;;
11665;SDS011;5889;51.350;6.708;2024-01-30T03:36:15;14.37;;;9.03;;
11665;SDS011;5889;51.350;6.708;2024-01-30T03:38:42;12.60;;;8.97;;
11665;SDS011;5889;51.350;6.708;2024-01-30T03:41:09;12.33;;;8.73;;
11665;SDS011;5889;51.350;6.708;2024-01-30T03:43:36;17.23;;;9.40;;
11665;SDS011;5889;51.350;6.708;2024-01-30T03:46:03;13.60;;;8.90;;
11665;SDS011;5889;51.350;6.708;2024-01-30T03:48:31;13.73;;;9.10;;
11665;SDS011;5889;51.350;6.708;2024-01-30T03:50:58;16.60;;;10.03;;
11665;SDS011;5889;51.350;6.708;2024-01-30T03:53:25;14.43;;;9.13;;
11665;SDS011;5889;51.350;6.708;2024-01-30T03:55:52;13.00;;;8.83;;
11665;SDS011;5889;51.350;6.708;2024-01-30T03:58:19;12.30;;;8.20;;
11665;SDS011;5889;51.350;6.708;2024-01-30T04:00:46;11.27;;;8.60;;
11665;SDS011;5889;51.350;6.708;2024-01-30T04:03:14;16.37;;;9.27;;
11665;SDS011;5889;51.350;6.708;2024-01-30T04:05:42;11.97;;;8.40;;
11665;SDS011;5889;51.350;6.708;2024-01-30T04:08:09;15.03;;;8.80;;
11665;SDS011;5889;51.350;6.708;2024-01-30T04:10:36;15.00;;;8.90;;
11665;SDS011;5889;51.350;6.708;2024-01-30T04:13:03;13.00;;;8.63;;
11665;SDS011;5889;51.350;6.708;2024-01-30T04:15:30;11.43;;;8.90;;
11665;SDS011;5889;51.350;6.708;2024-01-30T04:17:57;12.73;;;8.47;;
11665;SDS011;5889;51.350;6.708;2024-01-30T04:20:25;13.67;;;8.40;;
11665;SDS011;5889;51.350;6.708;2024-01-30T04:22:53;15.63;;;8.93;;
11665;SDS011;5889;51.350;6.708;2024-01-30T04:25:20;15.50;;;9.83;;
11665;SDS011;5889;51.350;6.708;2024-01-30T04:27:47;14.43;;;8.83;;
11665;SDS011;5889;51.350;6.708;2024-01-30T04:30:14;13.23;;;8.80;;
11665;SDS011;5889;51.350;6.708;2024-01-30T04:32:41;13.80;;;8.37;;
11665;SDS011;5889;51.350;6.708;2024-01-30T04:35:09;12.50;;;8.20;;
11665;SDS011;5889;51.350;6.708;2024-01-30T04:37:36;15.93;;;9.37;;
11665;SDS011;5889;51.350;6.708;2024-01-30T04:40:05;15.20;;;9.00;;
11665;SDS011;5889;51.350;6.708;2024-01-30T04:42:33;12.10;;;8.60;;
11665;SDS011;5889;51.350;6.708;2024-01-30T04:45:00;11.63;;;8.20;;
11665;SDS011;5889;51.350;6.708;2024-01-30T04:47:27;15.03;;;8.67;;
11665;SDS011;5889;51.350;6.708;2024-01-30T04:49:54;14.20;;;8.50;;
11665;SDS011;5889;51.350;6.708;2024-01-30T04:52:21;11.67;;;7.63;;
11665;SDS011;5889;51.350;6.708;2024-01-30T04:54:48;15.90;;;8.70;;
11665;SDS011;5889;51.350;6.708;2024-01-30T04:57:16;15.27;;;9.30;;
11665;SDS011;5889;51.350;6.708;2024-01-30T04:59:43;13.13;;;8.90;;
11665;SDS011;5889;51.350;6.708;2024-01-30T05:02:10;14.47;;;9.17;;
11665;SDS011;5889;51.350;6.708;2024-01-30T05:04:37;13.43;;;9.03;;
11665;SDS011;5889;51.350;6.708;2024-01-30T05:07:04;12.00;;;9.00;;
11665;SDS011;5889;51.350;6.708;2024-01-30T05:09:31;12.33;;;9.10;;
11665;SDS011;5889;51.350;6.708;2024-01-30T05:11:58;17.83;;;10.13;;
11665;SDS011;5889;51.350;6.708;2024-01-30T05:14:26;12.17;;;8.73;;
11665;SDS011;5889;51.350;6.708;2024-01-30T05:16:53;11.50;;;8.20;;
11665;SDS011;5889;51.350;6.708;2024-01-30T05:19:20;12.23;;;7.77;;
11665;SDS011;5889;51.350;6.708;2024-01-30T05:21:48;12.27;;;7.87;;
11665;SDS011;5889;51.350;6.708;2024-01-30T05:24:15;16.70;;;9.03;;
11665;SDS011;5889;51.350;6.708;2024-01-30T05:26:42;13.57;;;8.63;;
11665;SDS011;5889;51.350;6.708;2024-01-30T05:29:09;19.57;;;9.23;;
11665;SDS011;5889;51.350;6.708;2024-01-30T05:31:37;12.20;;;8.43;;
11665;SDS011;5889;51.350;6.708;2024-01-30T05:34:04;15.60;;;9.37;;
11665;SDS011;5889;51.350;6.708;2024-01-30T05:36:31;13.87;;;9.40;;
11665;SDS011;5889;51.350;6.708;2024-01-30T05:38:58;17.07;;;9.67;;
11665;SDS011;5889;51.350;6.708;2024-01-30T05:41:25;16.23;;;10.07;;
11665;SDS011;5889;51.350;6.708;2024-01-30T05:43:52;15.37;;;9.23;;
11665;SDS011;5889;51.350;6.708;2024-01-30T05:46:19;14.77;;;9.23;;
11665;SDS011;5889;51.350;6.708;2024-01-30T05:48:48;14.10;;;8.97;;
11665;SDS011;5889;51.350;6.708;2024-01-30T05:51:14;15.90;;;9.50;;
11665;SDS011;5889;51.350;6.708;2024-01-30T05:53:41;15.23;;;9.43;;
11665;SDS011;5889;51.350;6.708;2024-01-30T05:56:08;13.93;;;9.43;;
11665;SDS011;5889;51.350;6.708;2024-01-30T05:58:35;16.10;;;9.23;;
11665;SDS011;5889;51.350;6.708;2024-01-30T06:01:06;16.83;;;9.47;;
11665;SDS011;5889;51.350;6.708;2024-01-30T06:03:34;13.33;;;8.80;;
11665;SDS011;5889;51.350;6.708;2024-01-30T06:06:02;14.77;;;9.97;;
11665;SDS011;5889;51.350;6.708;2024-01-30T06:08:29;12.00;;;8.60;;
11665;SDS011;5889;51.350;6.708;2024-01-30T06:10:56;13.57;;;9.30;;
11665;SDS011;5889;51.350;6.708;2024-01-30T06:13:23;12.27;;;8.83;;
11665;SDS011;5889;51.350;6.708;2024-01-30T06:15:50;14.93;;;9.57;;
11665;SDS011;5889;51.350;6.708;2024-01-30T06:18:17;14.47;;;9.73;;
11665;SDS011;5889;51.350;6.708;2024-01-30T06:20:44;14.00;;;8.83;;
11665;SDS011;5889;51.350;6.708;2024-01-30T06:23:12;16.53;;;8.33;;
11665;SDS011;5889;51.350;6.708;2024-01-30T06:25:40;13.63;;;8.50;;
11665;SDS011;5889;51.350;6.708;2024-01-30T06:28:07;13.23;;;8.40;;
11665;SDS011;5889;51.350;6.708;2024-01-30T06:30:34;15.80;;;9.00;;
11665;SDS011;5889;51.350;6.708;2024-01-30T06:33:00;12.83;;;9.20;;
11665;SDS011;5889;51.350;6.708;2024-01-30T06:35:27;13.97;;;8.97;;
11665;SDS011;5889;51.350;6.708;2024-01-30T06:37:55;13.17;;;8.77;;
11665;SDS011;5889;51.350;6.708;2024-01-30T06:40:26;18.70;;;9.37;;
11665;SDS011;5889;51.350;6.708;2024-01-30T06:42:53;14.77;;;9.70;;
11665;SDS011;5889;51.350;6.708;2024-01-30T06:45:20;17.67;;;9.47;;
11665;SDS011;5889;51.350;6.708;2024-01-30T06:47:47;13.37;;;8.67;;
11665;SDS011;5889;51.350;6.708;2024-01-30T06:50:14;14.27;;;9.30;;
11665;SDS011;5889;51.350;6.708;2024-01-30T06:52:41;15.30;;;8.60;;
11665;SDS011;5889;51.350;6.708;2024-01-30T06:55:08;15.27;;;9.50;;
11665;SDS011;5889;51.350;6.708;2024-01-30T06:57:37;15.23;;;9.90;;
11665;SDS011;5889;51.350;6.708;2024-01-30T07:00:04;14.17;;;9.43;;
11665;SDS011;5889;51.350;6.708;2024-01-30T07:02:32;15.07;;;10.03;;
11665;SDS011;5889;51.350;6.708;2024-01-30T07:04:59;17.33;;;9.37;;
11665;SDS011;5889;51.350;6.708;2024-01-30T07:07:26;15.17;;;9.20;;
11665;SDS011;5889;51.350;6.708;2024-01-30T07:09:53;14.90;;;9.17;;
11665;SDS011;5889;51.350;6.708;2024-01-30T07:12:21;13.77;;;8.80;;
11665;SDS011;5889;51.350;6.708;2024-01-30T07:14:51;13.10;;;8.83;;
11665;SDS011;5889;51.350;6.708;2024-01-30T07:17:18;13.37;;;9.03;;
11665;SDS011;5889;51.350;6.708;2024-01-30T07:19:45;14.47;;;8.97;;
11665;SDS011;5889;51.350;6.708;2024-01-30T07:22:12;12.77;;;9.03;;
11665;SDS011;5889;51.350;6.708;2024-01-30T07:24:42;17.93;;;9.37;;
11665;SDS011;5889;51.350;6.708;2024-01-30T07:27:12;14.47;;;8.87;;
11665;SDS011;5889;51.350;6.708;2024-01-30T07:29:39;16.47;;;9.10;;
11665;SDS011;5889;51.350;6.708;2024-01-30T07:32:07;18.20;;;9.50;;
11665;SDS011;5889;51.350;6.708;2024-01-30T07:34:34;15.33;;;9.67;;
11665;SDS011;5889;51.350;6.708;2024-01-30T07:37:01;12.10;;;9.17;;
11665;SDS011;5889;51.350;6.708;2024-01-30T07:39:28;14.77;;;9.67;;
11665;SDS011;5889;51.350;6.708;2024-01-30T07:41:55;14.10;;;9.33;;
11665;SDS011;5889;51.350;6.708;2024-01-30T07:44:22;15.03;;;8.87;;
11665;SDS011;5889;51.350;6.708;2024-01-30T07:46:50;15.50;;;10.17;;
11665;SDS011;5889;51.350;6.708;2024-01-30T07:49:18;14.23;;;8.97;;
11665;SDS011;5889;51.350;6.708;2024-01-30T07:51:45;12.93;;;9.03;;
11665;SDS011;5889;51.350;6.708;2024-01-30T07:54:12;16.10;;;9.37;;
11665;SDS011;5889;51.350;6.708;2024-01-30T07:56:39;14.97;;;9.47;;
11665;SDS011;5889;51.350;6.708;2024-01-30T07:59:09;15.83;;;9.97;;
11665;SDS011;5889;51.350;6.708;2024-01-30T08:01:36;15.47;;;9.73;;
11665;SDS011;5889;51.350;6.708;2024-01-30T08:04:03;15.53;;;9.73;;
11665;SDS011;5889;51.350;6.708;2024-01-30T08:06:32;13.43;;;8.23;;
11665;SDS011;5889;51.350;6.708;2024-01-30T08:08:59;14.47;;;9.20;;
11665;SDS011;5889;51.350;6.708;2024-01-30T08:11:26;14.27;;;9.40;;
11665;SDS011;5889;51.350;6.708;2024-01-30T08:13:54;17.53;;;9.90;;
11665;SDS011;5889;51.350;6.708;2024-01-30T08:16:21;18.43;;;8.63;;
11665;SDS011;5889;51.350;6.708;2024-01-30T08:18:48;12.47;;;9.03;;
11665;SDS011;5889;51.350;6.708;2024-01-30T08:21:15;15.73;;;8.80;;
11665;SDS011;5889;51.350;6.708;2024-01-30T08:23:43;13.77;;;8.53;;
11665;SDS011;5889;51.350;6.708;2024-01-30T08:26:10;14.97;;;9.10;;
11665;SDS011;5889;51.350;6.708;2024-01-30T08:28:37;15.87;;;9.97;;
11665;SDS011;5889;51.350;6.708;2024-01-30T08:31:04;15.17;;;9.87;;
11665;SDS011;5889;51.350;6.708;2024-01-30T08:33:31;12.23;;;8.30;;
11665;SDS011;5889;51.350;6.708;2024-01-30T08:35:58;14.37;;;10.03;;
11665;SDS011;5889;51.350;6.708;2024-01-30T08:38:24;16.13;;;9.20;;
11665;SDS011;5889;51.350;6.708;2024-01-30T08:40:53;12.50;;;8.57;;
11665;SDS011;5889;51.350;6.708;2024-01-30T08:43:21;15.90;;;9.00;;
11665;SDS011;5889;51.350;6.708;2024-01-30T08:45:48;19.50;;;9.20;;
11665;SDS011;5889;51.350;6.708;2024-01-30T08:48:15;15.07;;;9.00;;
11665;SDS011;5889;51.350;6.708;2024-01-30T08:50:42;14.93;;;7.33;;
11665;SDS011;5889;51.350;6.708;2024-01-30T08:53:09;15.97;;;9.30;;
11665;SDS011;5889;51.350;6.708;2024-01-30T08:55:36;14.33;;;9.73;;
11665;SDS011;5889;51.350;6.708;2024-01-30T08:58:05;13.63;;;7.90;;
11665;SDS011;5889;51.350;6.708;2024-01-30T09:00:33;16.43;;;9.47;;
11665;SDS011;5889;51.350;6.708;2024-01-30T09:03:00;14.00;;;10.50;;
11665;SDS011;5889;51.350;6.708;2024-01-30T09:05:26;15.13;;;9.93;;
11665;SDS011;5889;51.350;6.708;2024-01-30T09:07:53;18.70;;;9.33;;
11665;SDS011;5889;51.350;6.708;2024-01-30T09:10:20;13.40;;;9.43;;
11665;SDS011;5889;51.350;6.708;2024-01-30T09:12:47;16.33;;;9.37;;
11665;SDS011;5889;51.350;6.708;2024-01-30T09:15:16;14.60;;;9.50;;
11665;SDS011;5889;51.350;6.708;2024-01-30T09:17:44;14.47;;;9.27;;
11665;SDS011;5889;51.350;6.708;2024-01-30T09:20:11;13.47;;;10.10;;
11665;SDS011;5889;51.350;6.708;2024-01-30T09:22:38;17.27;;;9.93;;
11665;SDS011;5889;51.350;6.708;2024-01-30T09:25:05;15.23;;;9.50;;
11665;SDS011;5889;51.350;6.708;2024-01-30T09:27:32;12.20;;;9.07;;
11665;SDS011;5889;51.350;6.708;2024-01-30T09:29:59;15.83;;;10.30;;
11665;SDS011;5889;51.350;6.708;2024-01-30T09:32:27;14.10;;;9.63;;
11665;SDS011;5889;51.350;6.708;2024-01-30T09:34:54;13.43;;;9.50;;
11665;SDS011;5889;51.350;6.708;2024-01-30T09:37:21;14.07;;;9.60;;
11665;SDS011;5889;51.350;6.708;2024-01-30T09:39:48;16.10;;;9.83;;
11665;SDS011;5889;51.350;6.708;2024-01-30T09:42:17;12.57;;;9.60;;
11665;SDS011;5889;51.350;6.708;2024-01-30T09:44:50;17.00;;;9.30;;
11665;SDS011;5889;51.350;6.708;2024-01-30T09:47:17;16.83;;;10.27;;
11665;SDS011;5889;51.350;6.708;2024-01-30T09:49:46;16.53;;;10.63;;
11665;SDS011;5889;51.350;6.708;2024-01-30T09:52:13;16.33;;;10.07;;
11665;SDS011;5889;51.350;6.708;2024-01-30T09:54:41;18.33;;;11.13;;
11665;SDS011;5889;51.350;6.708;2024-01-30T09:57:09;16.17;;;10.83;;
11665;SDS011;5889;51.350;6.708;2024-01-30T09:59:37;15.63;;;10.30;;
11665;SDS011;5889;51.350;6.708;2024-01-30T10:02:04;15.47;;;10.03;;
11665;SDS011;5889;51.350;6.708;2024-01-30T10:04:31;14.57;;;9.00;;
11665;SDS011;5889;51.350;6.708;2024-01-30T10:07:01;18.77;;;9.63;;
11665;SDS011;5889;51.350;6.708;2024-01-30T10:09:29;14.67;;;10.03;;
11665;SDS011;5889;51.350;6.708;2024-01-30T10:11:58;13.07;;;9.67;;
11665;SDS011;5889;51.350;6.708;2024-01-30T10:14:26;14.40;;;9.73;;
11665;SDS011;5889;51.350;6.708;2024-01-30T10:16:52;14.70;;;8.03;;
11665;SDS011;5889;51.350;6.708;2024-01-30T10:19:20;16.13;;;9.70;;
11665;SDS011;5889;51.350;6.708;2024-01-30T10:21:46;15.47;;;9.97;;
11665;SDS011;5889;51.350;6.708;2024-01-30T10:24:15;16.60;;;10.57;;
11665;SDS011;5889;51.350;6.708;2024-01-30T10:26:43;12.97;;;8.57;;
11665;SDS011;5889;51.350;6.708;2024-01-30T10:29:10;16.10;;;9.37;;
11665;SDS011;5889;51.350;6.708;2024-01-30T10:31:37;14.90;;;9.10;;
11665;SDS011;5889;51.350;6.708;2024-01-30T10:34:04;11.90;;;8.77;;
11665;SDS011;5889;51.350;6.708;2024-01-30T10:36:31;12.70;;;8.80;;
11665;SDS011;5889;51.350;6.708;2024-01-30T10:39:06;15.80;;;9.67;;
11665;SDS011;5889;51.350;6.708;2024-01-30T10:41:36;14.53;;;9.33;;
11665;SDS011;5889;51.350;6.708;2024-01-30T10:44:09;13.17;;;10.23;;
11665;SDS011;5889;51.350;6.708;2024-01-30T10:46:37;16.70;;;10.30;;
11665;SDS011;5889;51.350;6.708;2024-01-30T10:49:05;13.90;;;8.63;;
11665;SDS011;5889;51.350;6.708;2024-01-30T10:51:32;12.63;;;8.73;;
11665;SDS011;5889;51.350;6.708;2024-01-30T10:54:00;19.37;;;10.87;;
11665;SDS011;5889;51.350;6.708;2024-01-30T10:56:29;15.47;;;10.27;;
11665;SDS011;5889;51.350;6.708;2024-01-30T10:58:59;21.57;;;10.97;;
11665;SDS011;5889;51.350;6.708;2024-01-30T11:01:26;15.13;;;9.43;;
11665;SDS011;5889;51.350;6.708;2024-01-30T11:03:54;14.57;;;9.63;;
11665;SDS011;5889;51.350;6.708;2024-01-30T11:06:22;19.17;;;10.93;;
11665;SDS011;5889;51.350;6.708;2024-01-30T11:09:00;15.73;;;10.73;;
11665;SDS011;5889;51.350;6.708;2024-01-30T11:11:28;18.53;;;10.20;;
11665;SDS011;5889;51.350;6.708;2024-01-30T11:13:55;18.00;;;10.77;;
11665;SDS011;5889;51.350;6.708;2024-01-30T11:16:31;19.10;;;10.53;;
11665;SDS011;5889;51.350;6.708;2024-01-30T11:19:00;16.97;;;9.93;;
11665;SDS011;5889;51.350;6.708;2024-01-30T11:21:27;16.93;;;10.50;;
11665;SDS011;5889;51.350;6.708;2024-01-30T11:23:54;16.60;;;10.00;;
11665;SDS011;5889;51.350;6.708;2024-01-30T11:26:23;13.17;;;9.73;;
11665;SDS011;5889;51.350;6.708;2024-01-30T11:28:53;15.10;;;10.23;;
11665;SDS011;5889;51.350;6.708;2024-01-30T11:31:24;14.97;;;9.97;;
11665;SDS011;5889;51.350;6.708;2024-01-30T11:33:53;17.40;;;10.30;;
11665;SDS011;5889;51.350;6.708;2024-01-30T11:36:21;17.37;;;9.90;;
11665;SDS011;5889;51.350;6.708;2024-01-30T11:38:52;21.80;;;9.90;;
11665;SDS011;5889;51.350;6.708;2024-01-30T11:41:20;18.70;;;10.00;;
11665;SDS011;5889;51.350;6.708;2024-01-30T11:43:51;15.30;;;9.50;;
11665;SDS011;5889;51.350;6.708;2024-01-30T11:46:20;15.67;;;9.83;;
11665;SDS011;5889;51.350;6.708;2024-01-30T11:48:47;16.63;;;10.10;;
11665;SDS011;5889;51.350;6.708;2024-01-30T11:51:15;21.50;;;9.80;;
11665;SDS011;5889;51.350;6.708;2024-01-30T11:53:44;19.50;;;10.23;;
11665;SDS011;5889;51.350;6.708;2024-01-30T11:56:15;16.13;;;9.23;;
11665;SDS011;5889;51.350;6.708;2024-01-30T11:58:42;13.67;;;9.57;;
11665;SDS011;5889;51.350;6.708;2024-01-30T12:01:10;19.77;;;9.63;;
11665;SDS011;5889;51.350;6.708;2024-01-30T12:03:37;17.00;;;9.70;;
11665;SDS011;5889;51.350;6.708;2024-01-30T12:06:04;17.43;;;9.30;;
11665;SDS011;5889;51.350;6.708;2024-01-30T12:08:33;15.60;;;8.87;;
11665;SDS011;5889;51.350;6.708;2024-01-30T12:10:59;18.17;;;9.13;;
11665;SDS011;5889;51.350;6.708;2024-01-30T12:13:30;14.77;;;8.63;;
11665;SDS011;5889;51.350;6.708;2024-01-30T12:15:57;16.40;;;8.87;;
11665;SDS011;5889;51.350;6.708;2024-01-30T12:18:24;16.10;;;8.93;;
11665;SDS011;5889;51.350;6.708;2024-01-30T12:20:57;19.60;;;9.23;;
11665;SDS011;5889;51.350;6.708;2024-01-30T12:23:28;15.43;;;8.57;;
11665;SDS011;5889;51.350;6.708;2024-01-30T12:25:56;14.23;;;8.47;;
11665;SDS011;5889;51.350;6.708;2024-01-30T12:28:24;14.23;;;8.67;;
11665;SDS011;5889;51.350;6.708;2024-01-30T12:30:55;15.97;;;8.43;;
11665;SDS011;5889;51.350;6.708;2024-01-30T12:33:24;23.30;;;8.70;;
11665;SDS011;5889;51.350;6.708;2024-01-30T12:35:53;13.60;;;8.17;;
11665;SDS011;5889;51.350;6.708;2024-01-30T12:38:21;14.20;;;8.20;;
11665;SDS011;5889;51.350;6.708;2024-01-30T12:40:48;16.60;;;8.27;;
11665;SDS011;5889;51.350;6.708;2024-01-30T12:43:17;14.57;;;8.03;;
11665;SDS011;5889;51.350;6.708;2024-01-30T12:45:43;14.47;;;8.10;;
11665;SDS011;5889;51.350;6.708;2024-01-30T12:48:10;15.83;;;7.70;;
11665;SDS011;5889;51.350;6.708;2024-01-30T12:50:37;17.87;;;8.90;;
11665;SDS011;5889;51.350;6.708;2024-01-30T12:53:04;16.73;;;8.67;;
11665;SDS011;5889;51.350;6.708;2024-01-30T12:55:31;15.77;;;8.07;;
11665;SDS011;5889;51.350;6.708;2024-01-30T12:57:58;16.10;;;8.20;;
11665;SDS011;5889;51.350;6.708;2024-01-30T13:00:26;13.40;;;7.47;;
11665;SDS011;5889;51.350;6.708;2024-01-30T13:02:53;14.63;;;7.33;;
11665;SDS011;5889;51.350;6.708;2024-01-30T13:05:20;18.23;;;7.90;;
11665;SDS011;5889;51.350;6.708;2024-01-30T13:07:48;14.40;;;7.60;;
11665;SDS011;5889;51.350;6.708;2024-01-30T13:10:42;12.53;;;7.60;;
11665;SDS011;5889;51.350;6.708;2024-01-30T13:13:09;12.13;;;7.03;;
11665;SDS011;5889;51.350;6.708;2024-01-30T13:15:37;15.20;;;7.80;;
11665;SDS011;5889;51.350;6.708;2024-01-30T13:18:04;11.80;;;7.17;;
11665;SDS011;5889;51.350;6.708;2024-01-30T13:20:32;11.80;;;7.07;;
11665;SDS011;5889;51.350;6.708;2024-01-30T13:22:59;11.73;;;7.00;;
11665;SDS011;5889;51.350;6.708;2024-01-30T13:25:26;11.83;;;7.40;;
11665;SDS011;5889;51.350;6.708;2024-01-30T13:27:53;16.13;;;7.50;;
11665;SDS011;5889;51.350;6.708;2024-01-30T13:30:20;13.40;;;7.67;;
11665;SDS011;5889;51.350;6.708;2024-01-30T13:32:48;16.07;;;7.27;;
11665;SDS011;5889;51.350;6.708;2024-01-30T13:35:15;13.03;;;8.00;;
11665;SDS011;5889;51.350;6.708;2024-01-30T13:37:42;12.43;;;8.10;;
11665;SDS011;5889;51.350;6.708;2024-01-30T13:40:09;14.43;;;8.07;;
11665;SDS011;5889;51.350;6.708;2024-01-30T13:42:38;16.67;;;8.27;;
11665;SDS011;5889;51.350;6.708;2024-01-30T13:45:05;12.83;;;7.53;;
11665;SDS011;5889;51.350;6.708;2024-01-30T13:47:34;15.90;;;7.70;;
11665;SDS011;5889;51.350;6.708;2024-01-30T13:50:03;18.00;;;8.10;;
11665;SDS011;5889;51.350;6.708;2024-01-30T13:52:30;16.23;;;7.80;;
11665;SDS011;5889;51.350;6.708;2024-01-30T13:54:57;14.47;;;7.83;;
11665;SDS011;5889;51.350;6.708;2024-01-30T13:57:24;15.13;;;8.83;;
11665;SDS011;5889;51.350;6.708;2024-01-30T13:59:51;14.40;;;8.07;;
11665;SDS011;5889;51.350;6.708;2024-01-30T14:02:18;18.83;;;8.97;;
11665;SDS011;5889;51.350;6.708;2024-01-30T14:04:45;14.43;;;7.87;;
11665;SDS011;5889;51.350;6.708;2024-01-30T14:07:14;11.97;;;7.93;;
11665;SDS011;5889;51.350;6.708;2024-01-30T14:09:41;14.50;;;9.00;;
11665;SDS011;5889;51.350;6.708;2024-01-30T14:12:07;13.83;;;8.37;;
11665;SDS011;5889;51.350;6.708;2024-01-30T14:14:34;12.00;;;7.80;;
11665;SDS011;5889;51.350;6.708;2024-01-30T14:17:02;10.67;;;7.70;;
11665;SDS011;5889;51.350;6.708;2024-01-30T14:19:32;15.80;;;8.50;;
11665;SDS011;5889;51.350;6.708;2024-01-30T14:21:59;23.37;;;10.53;;
11665;SDS011;5889;51.350;6.708;2024-01-30T14:24:27;11.80;;;7.80;;
11665;SDS011;5889;51.350;6.708;2024-01-30T14:26:54;17.67;;;10.77;;
11665;SDS011;5889;51.350;6.708;2024-01-30T14:29:21;20.43;;;12.13;;
11665;SDS011;5889;51.350;6.708;2024-01-30T14:31:48;15.90;;;9.57;;
11665;SDS011;5889;51.350;6.708;2024-01-30T14:34:15;13.03;;;8.20;;
11665;SDS011;5889;51.350;6.708;2024-01-30T14:36:42;13.83;;;8.30;;
11665;SDS011;5889;51.350;6.708;2024-01-30T14:39:10;14.17;;;8.03;;
11665;SDS011;5889;51.350;6.708;2024-01-30T14:41:38;14.23;;;8.00;;
11665;SDS011;5889;51.350;6.708;2024-01-30T14:44:05;13.37;;;7.37;;
11665;SDS011;5889;51.350;6.708;2024-01-30T14:46:33;12.70;;;6.33;;